sensor_id;sensor_type;location;lat;lon;timestamp;P1;durP1;ratioP1;P2;durP2;ratioP2
65463;SDS011;52063;45.110;9.870;2023-07-31T00:01:32;6.27;;;5.07;;
65463;SDS011;52063;45.110;9.870;2023-07-31T00:03:58;7.10;;;5.50;;
65463;SDS011;52063;45.110;9.870;2023-07-31T00:06:23;5.72;;;5.22;;
65463;SDS011;52063;45.110;9.870;2023-07-31T00:08:49;5.47;;;4.97;;
65463;SDS011;52063;45.110;9.870;2023-07-31T00:11:14;6.17;;;5.60;;
65463;SDS011;52063;45.110;9.870;2023-07-31T00:13:40;5.47;;;4.97;;
65463;SDS011;52063;45.110;9.870;2023-07-31T00:16:05;5.87;;;5.20;;
65463;SDS011;52063;45.110;9.870;2023-07-31T00:18:31;5.53;;;4.93;;
65463;SDS011;52063;45.110;9.870;2023-07-31T00:20:56;6.40;;;5.40;;
65463;SDS011;52063;45.110;9.870;2023-07-31T00:23:21;6.20;;;5.57;;
65463;SDS011;52063;45.110;9.870;2023-07-31T00:25:47;5.10;;;4.60;;
65463;SDS011;52063;45.110;9.870;2023-07-31T00:28:12;5.80;;;5.20;;
65463;SDS011;52063;45.110;9.870;2023-07-31T00:30:38;5.70;;;5.20;;
65463;SDS011;52063;45.110;9.870;2023-07-31T00:33:03;5.50;;;5.00;;
65463;SDS011;52063;45.110;9.870;2023-07-31T00:35:29;7.33;;;5.77;;
65463;SDS011;52063;45.110;9.870;2023-07-31T00:37:54;6.53;;;5.60;;
65463;SDS011;52063;45.110;9.870;2023-07-31T00:40:21;6.13;;;5.38;;
65463;SDS011;52063;45.110;9.870;2023-07-31T00:42:46;5.37;;;4.87;;
65463;SDS011;52063;45.110;9.870;2023-07-31T00:45:13;6.15;;;4.90;;
65463;SDS011;52063;45.110;9.870;2023-07-31T00:47:39;7.40;;;5.00;;
65463;SDS011;52063;45.110;9.870;2023-07-31T00:50:04;5.07;;;4.43;;
65463;SDS011;52063;45.110;9.870;2023-07-31T00:52:31;4.20;;;3.83;;
65463;SDS011;52063;45.110;9.870;2023-07-31T00:54:56;5.73;;;4.57;;
65463;SDS011;52063;45.110;9.870;2023-07-31T00:57:22;4.77;;;4.37;;
65463;SDS011;52063;45.110;9.870;2023-07-31T00:59:47;4.43;;;4.03;;
65463;SDS011;52063;45.110;9.870;2023-07-31T01:02:13;4.93;;;4.53;;
65463;SDS011;52063;45.110;9.870;2023-07-31T01:04:41;4.77;;;4.37;;
65463;SDS011;52063;45.110;9.870;2023-07-31T01:07:11;5.53;;;4.50;;
65463;SDS011;52063;45.110;9.870;2023-07-31T01:12:20;7.30;;;4.70;;
65463;SDS011;52063;45.110;9.870;2023-07-31T01:14:51;5.60;;;4.35;;
65463;SDS011;52063;45.110;9.870;2023-07-31T01:17:37;5.47;;;4.50;;
65463;SDS011;52063;45.110;9.870;2023-07-31T01:20:05;5.35;;;4.57;;
65463;SDS011;52063;45.110;9.870;2023-07-31T01:25:43;5.93;;;4.47;;
65463;SDS011;52063;45.110;9.870;2023-07-31T01:28:35;5.75;;;5.10;;
65463;SDS011;52063;45.110;9.870;2023-07-31T01:31:07;5.32;;;4.82;;
65463;SDS011;52063;45.110;9.870;2023-07-31T01:33:33;5.53;;;5.03;;
65463;SDS011;52063;45.110;9.870;2023-07-31T01:35:59;5.57;;;4.65;;
65463;SDS011;52063;45.110;9.870;2023-07-31T01:38:24;5.97;;;4.07;;
65463;SDS011;52063;45.110;9.870;2023-07-31T01:40:53;5.33;;;4.93;;
65463;SDS011;52063;45.110;9.870;2023-07-31T01:43:19;4.60;;;4.20;;
65463;SDS011;52063;45.110;9.870;2023-07-31T01:45:44;4.30;;;3.90;;
65463;SDS011;52063;45.110;9.870;2023-07-31T01:48:10;5.27;;;3.90;;
65463;SDS011;52063;45.110;9.870;2023-07-31T01:50:35;5.13;;;4.20;;
65463;SDS011;52063;45.110;9.870;2023-07-31T01:53:01;4.32;;;3.92;;
65463;SDS011;52063;45.110;9.870;2023-07-31T01:55:26;6.40;;;4.37;;
65463;SDS011;52063;45.110;9.870;2023-07-31T01:57:52;4.70;;;3.90;;
65463;SDS011;52063;45.110;9.870;2023-07-31T02:00:18;4.40;;;4.00;;
65463;SDS011;52063;45.110;9.870;2023-07-31T02:02:44;5.97;;;4.00;;
65463;SDS011;52063;45.110;9.870;2023-07-31T02:05:09;4.23;;;3.83;;
65463;SDS011;52063;45.110;9.870;2023-07-31T02:07:36;4.20;;;3.40;;
65463;SDS011;52063;45.110;9.870;2023-07-31T02:10:02;3.50;;;3.20;;
65463;SDS011;52063;45.110;9.870;2023-07-31T02:12:27;3.70;;;3.40;;
65463;SDS011;52063;45.110;9.870;2023-07-31T02:14:55;2.97;;;2.77;;
65463;SDS011;52063;45.110;9.870;2023-07-31T02:17:21;5.32;;;3.35;;
65463;SDS011;52063;45.110;9.870;2023-07-31T02:19:46;4.13;;;3.50;;
65463;SDS011;52063;45.110;9.870;2023-07-31T02:22:12;3.40;;;3.10;;
65463;SDS011;52063;45.110;9.870;2023-07-31T02:24:37;2.90;;;2.70;;
65463;SDS011;52063;45.110;9.870;2023-07-31T02:27:02;3.60;;;2.90;;
65463;SDS011;52063;45.110;9.870;2023-07-31T02:29:28;5.55;;;2.97;;
65463;SDS011;52063;45.110;9.870;2023-07-31T02:31:54;5.47;;;3.57;;
65463;SDS011;52063;45.110;9.870;2023-07-31T02:34:19;3.57;;;3.27;;
65463;SDS011;52063;45.110;9.870;2023-07-31T02:36:45;3.95;;;3.05;;
65463;SDS011;52063;45.110;9.870;2023-07-31T02:39:10;3.30;;;3.00;;
65463;SDS011;52063;45.110;9.870;2023-07-31T02:41:36;3.80;;;3.30;;
65463;SDS011;52063;45.110;9.870;2023-07-31T02:44:01;8.88;;;3.50;;
65463;SDS011;52063;45.110;9.870;2023-07-31T02:46:27;4.50;;;3.10;;
65463;SDS011;52063;45.110;9.870;2023-07-31T02:48:52;3.77;;;3.27;;
65463;SDS011;52063;45.110;9.870;2023-07-31T02:51:19;3.45;;;3.10;;
65463;SDS011;52063;45.110;9.870;2023-07-31T02:53:46;3.53;;;2.72;;
65463;SDS011;52063;45.110;9.870;2023-07-31T02:56:13;3.35;;;2.95;;
65463;SDS011;52063;45.110;9.870;2023-07-31T02:58:38;4.80;;;3.00;;
65463;SDS011;52063;45.110;9.870;2023-07-31T03:01:04;3.87;;;2.80;;
65463;SDS011;52063;45.110;9.870;2023-07-31T03:03:29;3.83;;;3.37;;
65463;SDS011;52063;45.110;9.870;2023-07-31T03:05:55;4.70;;;3.30;;
65463;SDS011;52063;45.110;9.870;2023-07-31T03:08:20;3.60;;;3.30;;
65463;SDS011;52063;45.110;9.870;2023-07-31T03:10:46;3.20;;;2.90;;
65463;SDS011;52063;45.110;9.870;2023-07-31T03:13:11;3.73;;;3.13;;
65463;SDS011;52063;45.110;9.870;2023-07-31T03:15:37;5.00;;;2.90;;
65463;SDS011;52063;45.110;9.870;2023-07-31T03:18:02;6.07;;;3.50;;
65463;SDS011;52063;45.110;9.870;2023-07-31T03:20:28;3.80;;;3.33;;
65463;SDS011;52063;45.110;9.870;2023-07-31T03:22:53;3.60;;;3.37;;
65463;SDS011;52063;45.110;9.870;2023-07-31T03:25:19;4.50;;;3.47;;
65463;SDS011;52063;45.110;9.870;2023-07-31T03:27:44;3.40;;;3.20;;
65463;SDS011;52063;45.110;9.870;2023-07-31T03:30:10;3.55;;;3.10;;
65463;SDS011;52063;45.110;9.870;2023-07-31T03:32:36;3.70;;;3.25;;
65463;SDS011;52063;45.110;9.870;2023-07-31T03:35:01;3.97;;;3.37;;
65463;SDS011;52063;45.110;9.870;2023-07-31T03:37:27;3.63;;;3.30;;
65463;SDS011;52063;45.110;9.870;2023-07-31T03:39:53;4.80;;;3.63;;
65463;SDS011;52063;45.110;9.870;2023-07-31T03:42:18;3.88;;;3.33;;
65463;SDS011;52063;45.110;9.870;2023-07-31T03:44:44;3.73;;;3.17;;
65463;SDS011;52063;45.110;9.870;2023-07-31T03:47:09;3.43;;;3.13;;
65463;SDS011;52063;45.110;9.870;2023-07-31T03:49:36;4.40;;;2.77;;
65463;SDS011;52063;45.110;9.870;2023-07-31T03:52:02;3.22;;;2.78;;
65463;SDS011;52063;45.110;9.870;2023-07-31T03:54:27;3.77;;;3.47;;
65463;SDS011;52063;45.110;9.870;2023-07-31T03:56:53;3.30;;;3.00;;
65463;SDS011;52063;45.110;9.870;2023-07-31T03:59:18;3.95;;;3.42;;
65463;SDS011;52063;45.110;9.870;2023-07-31T04:01:44;3.60;;;3.30;;
65463;SDS011;52063;45.110;9.870;2023-07-31T04:04:09;5.10;;;3.53;;
65463;SDS011;52063;45.110;9.870;2023-07-31T04:06:34;3.60;;;3.30;;
65463;SDS011;52063;45.110;9.870;2023-07-31T04:09:00;3.15;;;2.85;;
65463;SDS011;52063;45.110;9.870;2023-07-31T04:11:26;4.20;;;2.60;;
65463;SDS011;52063;45.110;9.870;2023-07-31T04:13:52;7.23;;;2.80;;
65463;SDS011;52063;45.110;9.870;2023-07-31T04:16:17;4.03;;;3.30;;
65463;SDS011;52063;45.110;9.870;2023-07-31T04:18:43;3.70;;;2.90;;
65463;SDS011;52063;45.110;9.870;2023-07-31T04:21:08;3.70;;;3.40;;
65463;SDS011;52063;45.110;9.870;2023-07-31T04:23:35;3.80;;;3.50;;
65463;SDS011;52063;45.110;9.870;2023-07-31T04:26:00;6.20;;;3.40;;
65463;SDS011;52063;45.110;9.870;2023-07-31T04:28:26;4.33;;;3.93;;
65463;SDS011;52063;45.110;9.870;2023-07-31T04:30:52;4.50;;;3.97;;
65463;SDS011;52063;45.110;9.870;2023-07-31T04:33:18;5.53;;;3.90;;
65463;SDS011;52063;45.110;9.870;2023-07-31T04:35:51;5.05;;;3.80;;
65463;SDS011;52063;45.110;9.870;2023-07-31T04:38:18;3.92;;;3.53;;
65463;SDS011;52063;45.110;9.870;2023-07-31T04:40:44;5.03;;;4.13;;
65463;SDS011;52063;45.110;9.870;2023-07-31T04:43:09;4.53;;;4.13;;
65463;SDS011;52063;45.110;9.870;2023-07-31T04:45:35;5.80;;;4.57;;
65463;SDS011;52063;45.110;9.870;2023-07-31T04:48:00;5.10;;;4.13;;
65463;SDS011;52063;45.110;9.870;2023-07-31T04:50:26;6.07;;;4.20;;
65463;SDS011;52063;45.110;9.870;2023-07-31T04:52:51;4.23;;;3.93;;
65463;SDS011;52063;45.110;9.870;2023-07-31T04:55:17;6.38;;;4.35;;
65463;SDS011;52063;45.110;9.870;2023-07-31T04:57:42;4.43;;;4.03;;
65463;SDS011;52063;45.110;9.870;2023-07-31T05:00:08;4.63;;;4.23;;
65463;SDS011;52063;45.110;9.870;2023-07-31T05:02:33;4.47;;;4.10;;
65463;SDS011;52063;45.110;9.870;2023-07-31T05:04:59;5.03;;;4.53;;
65463;SDS011;52063;45.110;9.870;2023-07-31T05:07:24;7.73;;;4.50;;
65463;SDS011;52063;45.110;9.870;2023-07-31T05:09:50;7.50;;;4.13;;
65463;SDS011;52063;45.110;9.870;2023-07-31T05:12:15;5.50;;;4.63;;
65463;SDS011;52063;45.110;9.870;2023-07-31T05:14:41;6.43;;;5.33;;
65463;SDS011;52063;45.110;9.870;2023-07-31T05:17:06;5.95;;;4.88;;
65463;SDS011;52063;45.110;9.870;2023-07-31T05:19:33;5.87;;;4.53;;
65463;SDS011;52063;45.110;9.870;2023-07-31T05:21:58;6.20;;;4.43;;
65463;SDS011;52063;45.110;9.870;2023-07-31T05:24:24;5.50;;;4.37;;
65463;SDS011;52063;45.110;9.870;2023-07-31T05:26:49;5.03;;;4.50;;
65463;SDS011;52063;45.110;9.870;2023-07-31T05:29:14;5.40;;;4.90;;
65463;SDS011;52063;45.110;9.870;2023-07-31T05:31:41;6.50;;;5.07;;
65463;SDS011;52063;45.110;9.870;2023-07-31T05:34:07;5.13;;;4.65;;
65463;SDS011;52063;45.110;9.870;2023-07-31T05:36:32;4.93;;;4.13;;
65463;SDS011;52063;45.110;9.870;2023-07-31T05:38:58;4.93;;;4.03;;
65463;SDS011;52063;45.110;9.870;2023-07-31T05:41:23;4.90;;;4.40;;
65463;SDS011;52063;45.110;9.870;2023-07-31T05:43:49;4.50;;;4.20;;
65463;SDS011;52063;45.110;9.870;2023-07-31T05:46:14;5.60;;;4.20;;
65463;SDS011;52063;45.110;9.870;2023-07-31T05:48:40;4.95;;;4.20;;
65463;SDS011;52063;45.110;9.870;2023-07-31T05:51:05;4.87;;;4.23;;
65463;SDS011;52063;45.110;9.870;2023-07-31T05:53:31;5.13;;;3.60;;
65463;SDS011;52063;45.110;9.870;2023-07-31T05:55:56;4.05;;;3.65;;
65463;SDS011;52063;45.110;9.870;2023-07-31T05:58:21;4.90;;;4.40;;
65463;SDS011;52063;45.110;9.870;2023-07-31T06:00:47;4.23;;;3.80;;
65463;SDS011;52063;45.110;9.870;2023-07-31T06:03:12;4.00;;;3.60;;
65463;SDS011;52063;45.110;9.870;2023-07-31T06:05:38;8.73;;;4.60;;
65463;SDS011;52063;45.110;9.870;2023-07-31T06:08:03;4.40;;;3.20;;
65463;SDS011;52063;45.110;9.870;2023-07-31T06:10:29;6.17;;;3.50;;
65463;SDS011;52063;45.110;9.870;2023-07-31T06:12:54;3.70;;;3.40;;
65463;SDS011;52063;45.110;9.870;2023-07-31T06:15:20;5.33;;;3.33;;
65463;SDS011;52063;45.110;9.870;2023-07-31T06:17:45;3.60;;;3.30;;
65463;SDS011;52063;45.110;9.870;2023-07-31T06:20:11;4.55;;;3.20;;
65463;SDS011;52063;45.110;9.870;2023-07-31T06:22:36;6.47;;;3.33;;
65463;SDS011;52063;45.110;9.870;2023-07-31T06:25:02;3.53;;;3.23;;
65463;SDS011;52063;45.110;9.870;2023-07-31T06:27:27;4.95;;;3.83;;
65463;SDS011;52063;45.110;9.870;2023-07-31T06:29:53;6.67;;;3.43;;
65463;SDS011;52063;45.110;9.870;2023-07-31T06:32:19;5.33;;;3.30;;
65463;SDS011;52063;45.110;9.870;2023-07-31T06:34:44;2.83;;;2.40;;
65463;SDS011;52063;45.110;9.870;2023-07-31T06:37:10;3.30;;;2.63;;
65463;SDS011;52063;45.110;9.870;2023-07-31T06:39:35;2.87;;;2.43;;
65463;SDS011;52063;45.110;9.870;2023-07-31T06:42:01;6.17;;;3.23;;
65463;SDS011;52063;45.110;9.870;2023-07-31T06:44:26;8.13;;;3.90;;
65463;SDS011;52063;45.110;9.870;2023-07-31T06:46:52;6.33;;;3.40;;
65463;SDS011;52063;45.110;9.870;2023-07-31T06:49:17;3.20;;;2.87;;
65463;SDS011;52063;45.110;9.870;2023-07-31T06:51:43;3.10;;;2.80;;
65463;SDS011;52063;45.110;9.870;2023-07-31T06:54:09;3.10;;;2.80;;
65463;SDS011;52063;45.110;9.870;2023-07-31T06:56:34;2.30;;;2.10;;
65463;SDS011;52063;45.110;9.870;2023-07-31T06:59:00;2.80;;;2.33;;
65463;SDS011;52063;45.110;9.870;2023-07-31T07:01:25;3.53;;;2.23;;
65463;SDS011;52063;45.110;9.870;2023-07-31T07:03:51;3.57;;;2.63;;
65463;SDS011;52063;45.110;9.870;2023-07-31T07:06:17;2.93;;;2.37;;
65463;SDS011;52063;45.110;9.870;2023-07-31T07:08:43;3.92;;;2.30;;
65463;SDS011;52063;45.110;9.870;2023-07-31T07:11:08;5.10;;;2.00;;
65463;SDS011;52063;45.110;9.870;2023-07-31T07:13:34;6.00;;;2.50;;
65463;SDS011;52063;45.110;9.870;2023-07-31T07:15:59;4.53;;;3.60;;
65463;SDS011;52063;45.110;9.870;2023-07-31T07:18:25;3.58;;;3.30;;
65463;SDS011;52063;45.110;9.870;2023-07-31T07:20:51;5.17;;;3.67;;
65463;SDS011;52063;45.110;9.870;2023-07-31T07:23:17;6.70;;;3.20;;
65463;SDS011;52063;45.110;9.870;2023-07-31T07:25:43;6.00;;;3.10;;
65463;SDS011;52063;45.110;9.870;2023-07-31T07:28:10;3.28;;;2.97;;
65463;SDS011;52063;45.110;9.870;2023-07-31T07:30:35;6.27;;;3.73;;
65463;SDS011;52063;45.110;9.870;2023-07-31T07:33:01;3.53;;;3.20;;
65463;SDS011;52063;45.110;9.870;2023-07-31T07:35:26;4.93;;;2.80;;
65463;SDS011;52063;45.110;9.870;2023-07-31T07:37:52;4.10;;;2.70;;
65463;SDS011;52063;45.110;9.870;2023-07-31T07:40:18;4.28;;;2.20;;
65463;SDS011;52063;45.110;9.870;2023-07-31T07:42:44;3.33;;;2.55;;
65463;SDS011;52063;45.110;9.870;2023-07-31T07:45:09;3.10;;;2.30;;
65463;SDS011;52063;45.110;9.870;2023-07-31T07:47:35;2.73;;;2.30;;
65463;SDS011;52063;45.110;9.870;2023-07-31T07:50:00;4.72;;;2.35;;
65463;SDS011;52063;45.110;9.870;2023-07-31T07:52:26;3.97;;;2.53;;
65463;SDS011;52063;45.110;9.870;2023-07-31T07:54:51;4.63;;;2.47;;
65463;SDS011;52063;45.110;9.870;2023-07-31T07:57:17;10.05;;;3.05;;
65463;SDS011;52063;45.110;9.870;2023-07-31T07:59:43;3.73;;;2.80;;
65463;SDS011;52063;45.110;9.870;2023-07-31T08:02:09;2.75;;;2.47;;
65463;SDS011;52063;45.110;9.870;2023-07-31T08:04:34;2.33;;;2.10;;
65463;SDS011;52063;45.110;9.870;2023-07-31T08:06:59;3.07;;;1.90;;
65463;SDS011;52063;45.110;9.870;2023-07-31T08:09:25;2.43;;;1.80;;
65463;SDS011;52063;45.110;9.870;2023-07-31T08:11:51;2.13;;;1.90;;
65463;SDS011;52063;45.110;9.870;2023-07-31T08:14:16;3.30;;;1.60;;
65463;SDS011;52063;45.110;9.870;2023-07-31T08:16:42;2.35;;;1.40;;
65463;SDS011;52063;45.110;9.870;2023-07-31T08:19:07;2.30;;;1.40;;
65463;SDS011;52063;45.110;9.870;2023-07-31T08:21:33;3.07;;;1.53;;
65463;SDS011;52063;45.110;9.870;2023-07-31T08:23:58;2.78;;;1.38;;
65463;SDS011;52063;45.110;9.870;2023-07-31T08:26:24;2.03;;;1.13;;
65463;SDS011;52063;45.110;9.870;2023-07-31T08:28:49;1.40;;;1.17;;
65463;SDS011;52063;45.110;9.870;2023-07-31T08:31:14;1.90;;;1.20;;
65463;SDS011;52063;45.110;9.870;2023-07-31T08:33:40;1.80;;;1.20;;
65463;SDS011;52063;45.110;9.870;2023-07-31T08:36:05;2.13;;;1.47;;
65463;SDS011;52063;45.110;9.870;2023-07-31T08:38:31;2.33;;;1.40;;
65463;SDS011;52063;45.110;9.870;2023-07-31T08:40:57;3.25;;;1.60;;
65463;SDS011;52063;45.110;9.870;2023-07-31T08:43:24;2.50;;;1.52;;
65463;SDS011;52063;45.110;9.870;2023-07-31T08:45:51;3.30;;;1.57;;
65463;SDS011;52063;45.110;9.870;2023-07-31T08:48:16;8.52;;;4.97;;
65463;SDS011;52063;45.110;9.870;2023-07-31T08:50:42;12.45;;;4.32;;
65463;SDS011;52063;45.110;9.870;2023-07-31T08:53:08;15.03;;;6.60;;
65463;SDS011;52063;45.110;9.870;2023-07-31T08:55:34;5.57;;;3.33;;
65463;SDS011;52063;45.110;9.870;2023-07-31T08:58:00;3.03;;;1.70;;
65463;SDS011;52063;45.110;9.870;2023-07-31T09:00:28;2.63;;;1.80;;
65463;SDS011;52063;45.110;9.870;2023-07-31T09:03:03;3.03;;;1.90;;
65463;SDS011;52063;45.110;9.870;2023-07-31T09:05:33;2.73;;;1.80;;
65463;SDS011;52063;45.110;9.870;2023-07-31T09:08:01;5.07;;;1.63;;
65463;SDS011;52063;45.110;9.870;2023-07-31T09:10:28;6.47;;;1.50;;
65463;SDS011;52063;45.110;9.870;2023-07-31T09:12:53;3.40;;;1.40;;
65463;SDS011;52063;45.110;9.870;2023-07-31T09:15:19;2.63;;;1.67;;
65463;SDS011;52063;45.110;9.870;2023-07-31T09:17:46;3.33;;;1.40;;
65463;SDS011;52063;45.110;9.870;2023-07-31T09:20:15;2.43;;;1.60;;
65463;SDS011;52063;45.110;9.870;2023-07-31T09:22:42;2.40;;;1.63;;
65463;SDS011;52063;45.110;9.870;2023-07-31T09:28:02;2.35;;;1.77;;
65463;SDS011;52063;45.110;9.870;2023-07-31T09:30:32;1.83;;;1.60;;
65463;SDS011;52063;45.110;9.870;2023-07-31T09:33:09;3.35;;;1.73;;
65463;SDS011;52063;45.110;9.870;2023-07-31T09:35:35;3.17;;;1.77;;
65463;SDS011;52063;45.110;9.870;2023-07-31T09:38:03;3.07;;;2.10;;
65463;SDS011;52063;45.110;9.870;2023-07-31T09:40:32;3.42;;;1.55;;
65463;SDS011;52063;45.110;9.870;2023-07-31T09:42:59;2.75;;;1.73;;
65463;SDS011;52063;45.110;9.870;2023-07-31T09:45:26;2.28;;;1.73;;
65463;SDS011;52063;45.110;9.870;2023-07-31T09:47:53;2.13;;;1.67;;
65463;SDS011;52063;45.110;9.870;2023-07-31T09:50:22;7.30;;;1.83;;
65463;SDS011;52063;45.110;9.870;2023-07-31T09:52:49;2.70;;;1.60;;
65463;SDS011;52063;45.110;9.870;2023-07-31T09:55:15;4.53;;;2.00;;
65463;SDS011;52063;45.110;9.870;2023-07-31T09:57:41;2.43;;;1.70;;
65463;SDS011;52063;45.110;9.870;2023-07-31T10:00:09;2.58;;;1.55;;
65463;SDS011;52063;45.110;9.870;2023-07-31T10:02:37;2.70;;;1.75;;
65463;SDS011;52063;45.110;9.870;2023-07-31T10:05:03;2.03;;;1.50;;
65463;SDS011;52063;45.110;9.870;2023-07-31T10:07:30;4.13;;;2.05;;
65463;SDS011;52063;45.110;9.870;2023-07-31T10:10:00;4.07;;;1.73;;
65463;SDS011;52063;45.110;9.870;2023-07-31T10:12:26;2.45;;;1.90;;
65463;SDS011;52063;45.110;9.870;2023-07-31T10:14:55;2.47;;;2.10;;
65463;SDS011;52063;45.110;9.870;2023-07-31T10:17:21;2.60;;;1.95;;
65463;SDS011;52063;45.110;9.870;2023-07-31T10:19:48;3.30;;;1.90;;
65463;SDS011;52063;45.110;9.870;2023-07-31T10:22:14;2.20;;;1.80;;
65463;SDS011;52063;45.110;9.870;2023-07-31T10:24:41;5.75;;;2.70;;
65463;SDS011;52063;45.110;9.870;2023-07-31T10:27:08;4.07;;;2.35;;
65463;SDS011;52063;45.110;9.870;2023-07-31T10:29:33;3.23;;;2.20;;
65463;SDS011;52063;45.110;9.870;2023-07-31T10:31:59;4.82;;;1.90;;
65463;SDS011;52063;45.110;9.870;2023-07-31T10:34:25;3.13;;;2.00;;
65463;SDS011;52063;45.110;9.870;2023-07-31T10:36:56;4.77;;;2.20;;
65463;SDS011;52063;45.110;9.870;2023-07-31T10:42:28;4.13;;;1.80;;
65463;SDS011;52063;45.110;9.870;2023-07-31T10:44:59;2.70;;;1.83;;
65463;SDS011;52063;45.110;9.870;2023-07-31T10:47:25;3.53;;;1.83;;
65463;SDS011;52063;45.110;9.870;2023-07-31T10:49:51;2.65;;;2.22;;
65463;SDS011;52063;45.110;9.870;2023-07-31T10:52:20;2.27;;;1.80;;
65463;SDS011;52063;45.110;9.870;2023-07-31T10:54:49;6.38;;;2.20;;
65463;SDS011;52063;45.110;9.870;2023-07-31T10:57:19;2.00;;;1.83;;
65463;SDS011;52063;45.110;9.870;2023-07-31T10:59:45;3.92;;;2.00;;
65463;SDS011;52063;45.110;9.870;2023-07-31T11:02:23;6.27;;;1.40;;
65463;SDS011;52063;45.110;9.870;2023-07-31T11:05:09;2.38;;;1.80;;
65463;SDS011;52063;45.110;9.870;2023-07-31T11:07:50;2.27;;;2.07;;
65463;SDS011;52063;45.110;9.870;2023-07-31T11:10:16;2.95;;;1.90;;
65463;SDS011;52063;45.110;9.870;2023-07-31T11:12:42;3.10;;;1.88;;
65463;SDS011;52063;45.110;9.870;2023-07-31T11:15:08;2.17;;;1.73;;
65463;SDS011;52063;45.110;9.870;2023-07-31T11:17:38;3.40;;;1.60;;
65463;SDS011;52063;45.110;9.870;2023-07-31T11:20:04;2.63;;;2.03;;
65463;SDS011;52063;45.110;9.870;2023-07-31T11:22:31;2.92;;;1.70;;
65463;SDS011;52063;45.110;9.870;2023-07-31T11:24:56;5.30;;;2.10;;
65463;SDS011;52063;45.110;9.870;2023-07-31T11:27:21;3.10;;;2.03;;
65463;SDS011;52063;45.110;9.870;2023-07-31T11:29:47;2.63;;;1.70;;
65463;SDS011;52063;45.110;9.870;2023-07-31T11:32:16;2.30;;;2.08;;
65463;SDS011;52063;45.110;9.870;2023-07-31T11:34:52;2.80;;;2.10;;
65463;SDS011;52063;45.110;9.870;2023-07-31T11:37:18;2.72;;;1.75;;
65463;SDS011;52063;45.110;9.870;2023-07-31T11:39:43;3.13;;;2.20;;
65463;SDS011;52063;45.110;9.870;2023-07-31T11:42:09;3.63;;;1.83;;
65463;SDS011;52063;45.110;9.870;2023-07-31T11:44:38;2.10;;;1.67;;
65463;SDS011;52063;45.110;9.870;2023-07-31T11:47:06;4.97;;;1.90;;
65463;SDS011;52063;45.110;9.870;2023-07-31T11:49:31;2.55;;;2.13;;
65463;SDS011;52063;45.110;9.870;2023-07-31T11:51:57;2.87;;;2.23;;
65463;SDS011;52063;45.110;9.870;2023-07-31T11:54:23;3.30;;;2.00;;
65463;SDS011;52063;45.110;9.870;2023-07-31T11:56:48;3.10;;;2.20;;
65463;SDS011;52063;45.110;9.870;2023-07-31T11:59:14;3.47;;;2.08;;
65463;SDS011;52063;45.110;9.870;2023-07-31T12:01:40;3.23;;;2.50;;
65463;SDS011;52063;45.110;9.870;2023-07-31T12:04:05;2.63;;;2.23;;
65463;SDS011;52063;45.110;9.870;2023-07-31T12:06:35;2.97;;;2.43;;
65463;SDS011;52063;45.110;9.870;2023-07-31T12:09:04;3.70;;;2.70;;
65463;SDS011;52063;45.110;9.870;2023-07-31T12:11:30;3.85;;;2.33;;
65463;SDS011;52063;45.110;9.870;2023-07-31T12:13:55;2.73;;;2.53;;
65463;SDS011;52063;45.110;9.870;2023-07-31T12:16:22;2.77;;;2.57;;
65463;SDS011;52063;45.110;9.870;2023-07-31T12:18:51;3.23;;;2.53;;
65463;SDS011;52063;45.110;9.870;2023-07-31T12:21:17;3.97;;;2.30;;
65463;SDS011;52063;45.110;9.870;2023-07-31T12:23:44;4.13;;;2.30;;
65463;SDS011;52063;45.110;9.870;2023-07-31T12:26:11;2.63;;;2.43;;
65463;SDS011;52063;45.110;9.870;2023-07-31T12:28:47;2.65;;;2.45;;
65463;SDS011;52063;45.110;9.870;2023-07-31T12:31:15;3.72;;;2.00;;
65463;SDS011;52063;45.110;9.870;2023-07-31T12:33:45;6.22;;;2.20;;
65463;SDS011;52063;45.110;9.870;2023-07-31T12:36:12;5.90;;;2.15;;
65463;SDS011;52063;45.110;9.870;2023-07-31T12:38:39;2.07;;;1.87;;
65463;SDS011;52063;45.110;9.870;2023-07-31T12:41:05;2.85;;;2.15;;
65463;SDS011;52063;45.110;9.870;2023-07-31T12:43:34;3.95;;;2.00;;
65463;SDS011;52063;45.110;9.870;2023-07-31T12:46:00;2.10;;;1.90;;
65463;SDS011;52063;45.110;9.870;2023-07-31T12:48:26;2.57;;;2.37;;
65463;SDS011;52063;45.110;9.870;2023-07-31T12:50:51;2.10;;;1.90;;
65463;SDS011;52063;45.110;9.870;2023-07-31T12:53:16;2.45;;;1.90;;
65463;SDS011;52063;45.110;9.870;2023-07-31T12:55:42;3.70;;;2.20;;
65463;SDS011;52063;45.110;9.870;2023-07-31T12:58:07;6.50;;;2.10;;
65463;SDS011;52063;45.110;9.870;2023-07-31T13:00:33;4.60;;;1.83;;
65463;SDS011;52063;45.110;9.870;2023-07-31T13:02:59;3.73;;;1.90;;
65463;SDS011;52063;45.110;9.870;2023-07-31T13:05:25;2.97;;;2.08;;
65463;SDS011;52063;45.110;9.870;2023-07-31T13:07:51;2.73;;;2.00;;
65463;SDS011;52063;45.110;9.870;2023-07-31T13:10:17;2.35;;;1.80;;
65463;SDS011;52063;45.110;9.870;2023-07-31T13:12:42;3.00;;;1.80;;
65463;SDS011;52063;45.110;9.870;2023-07-31T13:15:08;3.72;;;1.90;;
65463;SDS011;52063;45.110;9.870;2023-07-31T13:17:33;3.10;;;2.10;;
65463;SDS011;52063;45.110;9.870;2023-07-31T13:20:00;4.03;;;2.10;;
65463;SDS011;52063;45.110;9.870;2023-07-31T13:22:25;2.10;;;1.90;;
65463;SDS011;52063;45.110;9.870;2023-07-31T13:24:51;3.70;;;2.00;;
65463;SDS011;52063;45.110;9.870;2023-07-31T13:27:16;1.93;;;1.77;;
65463;SDS011;52063;45.110;9.870;2023-07-31T13:29:44;2.42;;;2.22;;
65463;SDS011;52063;45.110;9.870;2023-07-31T13:32:10;2.38;;;2.10;;
65463;SDS011;52063;45.110;9.870;2023-07-31T13:34:35;5.57;;;1.90;;
65463;SDS011;52063;45.110;9.870;2023-07-31T13:37:00;3.80;;;2.17;;
65463;SDS011;52063;45.110;9.870;2023-07-31T13:39:26;4.25;;;2.22;;
65463;SDS011;52063;45.110;9.870;2023-07-31T13:41:51;4.63;;;2.30;;
65463;SDS011;52063;45.110;9.870;2023-07-31T13:44:17;2.67;;;2.40;;
65463;SDS011;52063;45.110;9.870;2023-07-31T13:46:42;2.40;;;2.13;;
65463;SDS011;52063;45.110;9.870;2023-07-31T13:49:08;3.45;;;2.40;;
65463;SDS011;52063;45.110;9.870;2023-07-31T13:51:33;3.10;;;2.33;;
65463;SDS011;52063;45.110;9.870;2023-07-31T13:53:59;5.00;;;2.80;;
65463;SDS011;52063;45.110;9.870;2023-07-31T13:56:24;2.75;;;1.88;;
65463;SDS011;52063;45.110;9.870;2023-07-31T13:58:50;6.57;;;2.00;;
65463;SDS011;52063;45.110;9.870;2023-07-31T14:01:15;3.80;;;2.30;;
65463;SDS011;52063;45.110;9.870;2023-07-31T14:03:41;1.98;;;1.70;;
65463;SDS011;52063;45.110;9.870;2023-07-31T14:06:06;3.87;;;2.20;;
65463;SDS011;52063;45.110;9.870;2023-07-31T14:08:31;2.27;;;2.07;;
65463;SDS011;52063;45.110;9.870;2023-07-31T14:10:57;2.93;;;2.03;;
65463;SDS011;52063;45.110;9.870;2023-07-31T14:13:22;3.08;;;2.03;;
65463;SDS011;52063;45.110;9.870;2023-07-31T14:15:48;4.63;;;2.00;;
65463;SDS011;52063;45.110;9.870;2023-07-31T14:18:13;3.27;;;2.37;;
65463;SDS011;52063;45.110;9.870;2023-07-31T14:20:38;2.63;;;2.20;;
65463;SDS011;52063;45.110;9.870;2023-07-31T14:23:04;2.92;;;2.33;;
65463;SDS011;52063;45.110;9.870;2023-07-31T14:25:29;2.33;;;2.13;;
65463;SDS011;52063;45.110;9.870;2023-07-31T14:27:55;4.10;;;2.37;;
65463;SDS011;52063;45.110;9.870;2023-07-31T14:30:20;2.67;;;2.00;;
65463;SDS011;52063;45.110;9.870;2023-07-31T14:32:46;4.80;;;2.30;;
65463;SDS011;52063;45.110;9.870;2023-07-31T14:35:12;3.92;;;2.47;;
65463;SDS011;52063;45.110;9.870;2023-07-31T14:37:38;2.53;;;2.20;;
65463;SDS011;52063;45.110;9.870;2023-07-31T14:40:08;2.40;;;2.20;;
65463;SDS011;52063;45.110;9.870;2023-07-31T14:42:35;2.50;;;2.30;;
65463;SDS011;52063;45.110;9.870;2023-07-31T14:45:01;2.30;;;1.60;;
65463;SDS011;52063;45.110;9.870;2023-07-31T14:47:26;2.10;;;1.95;;
65463;SDS011;52063;45.110;9.870;2023-07-31T14:49:52;2.83;;;1.93;;
65463;SDS011;52063;45.110;9.870;2023-07-31T14:52:17;2.10;;;1.90;;
65463;SDS011;52063;45.110;9.870;2023-07-31T14:54:43;2.93;;;2.00;;